sensor_id;sensor_type;location;lat;lon;timestamp;P1;durP1;ratioP1;P2;durP2;ratioP2
55762;SDS011;42162;51.958;5.426;2024-02-15T00:00:02;13.07;;;5.05;;
55762;SDS011;42162;51.958;5.426;2024-02-15T00:02:31;13.38;;;5.50;;
55762;SDS011;42162;51.958;5.426;2024-02-15T00:04:59;9.95;;;5.35;;
55762;SDS011;42162;51.958;5.426;2024-02-15T00:07:26;4.95;;;3.92;;
55762;SDS011;42162;51.958;5.426;2024-02-15T00:09:53;8.13;;;4.88;;
55762;SDS011;42162;51.958;5.426;2024-02-15T00:12:21;9.82;;;5.13;;
55762;SDS011;42162;51.958;5.426;2024-02-15T00:14:53;11.50;;;4.87;;
55762;SDS011;42162;51.958;5.426;2024-02-15T00:17:20;8.93;;;4.85;;
55762;SDS011;42162;51.958;5.426;2024-02-15T00:19:48;7.38;;;4.18;;
55762;SDS011;42162;51.958;5.426;2024-02-15T00:22:16;7.20;;;4.50;;
55762;SDS011;42162;51.958;5.426;2024-02-15T00:24:49;6.95;;;5.25;;
55762;SDS011;42162;51.958;5.426;2024-02-15T00:27:20;9.32;;;6.03;;
55762;SDS011;42162;51.958;5.426;2024-02-15T00:29:48;6.53;;;5.30;;
55762;SDS011;42162;51.958;5.426;2024-02-15T00:32:15;9.60;;;6.38;;
55762;SDS011;42162;51.958;5.426;2024-02-15T00:34:43;12.07;;;7.30;;
55762;SDS011;42162;51.958;5.426;2024-02-15T00:37:11;10.68;;;7.65;;
55762;SDS011;42162;51.958;5.426;2024-02-15T00:39:39;12.48;;;10.88;;
55762;SDS011;42162;51.958;5.426;2024-02-15T00:42:08;16.95;;;12.18;;
55762;SDS011;42162;51.958;5.426;2024-02-15T00:44:36;19.02;;;13.52;;
55762;SDS011;42162;51.958;5.426;2024-02-15T00:47:04;24.38;;;14.82;;
55762;SDS011;42162;51.958;5.426;2024-02-15T00:49:31;20.52;;;14.02;;
55762;SDS011;42162;51.958;5.426;2024-02-15T00:51:59;17.70;;;13.88;;
55762;SDS011;42162;51.958;5.426;2024-02-15T00:54:27;17.63;;;15.15;;
55762;SDS011;42162;51.958;5.426;2024-02-15T00:56:54;23.98;;;14.50;;
55762;SDS011;42162;51.958;5.426;2024-02-15T00:59:22;21.25;;;17.10;;
55762;SDS011;42162;51.958;5.426;2024-02-15T01:01:49;19.25;;;15.82;;
55762;SDS011;42162;51.958;5.426;2024-02-15T01:04:19;16.73;;;14.90;;
55762;SDS011;42162;51.958;5.426;2024-02-15T01:06:46;17.88;;;14.13;;
55762;SDS011;42162;51.958;5.426;2024-02-15T01:09:14;19.35;;;15.88;;
55762;SDS011;42162;51.958;5.426;2024-02-15T01:11:41;21.65;;;15.65;;
55762;SDS011;42162;51.958;5.426;2024-02-15T01:14:08;20.75;;;15.15;;
55762;SDS011;42162;51.958;5.426;2024-02-15T01:16:36;26.80;;;15.15;;
55762;SDS011;42162;51.958;5.426;2024-02-15T01:19:05;23.40;;;14.40;;
55762;SDS011;42162;51.958;5.426;2024-02-15T01:21:32;17.67;;;12.93;;
55762;SDS011;42162;51.958;5.426;2024-02-15T01:24:00;17.38;;;12.57;;
55762;SDS011;42162;51.958;5.426;2024-02-15T01:26:28;18.45;;;13.65;;
55762;SDS011;42162;51.958;5.426;2024-02-15T01:28:56;18.23;;;12.30;;
55762;SDS011;42162;51.958;5.426;2024-02-15T01:31:23;17.30;;;11.95;;
55762;SDS011;42162;51.958;5.426;2024-02-15T01:33:50;13.73;;;10.20;;
55762;SDS011;42162;51.958;5.426;2024-02-15T01:36:18;16.33;;;11.32;;
55762;SDS011;42162;51.958;5.426;2024-02-15T01:38:46;15.07;;;10.45;;
55762;SDS011;42162;51.958;5.426;2024-02-15T01:41:13;17.48;;;11.13;;
55762;SDS011;42162;51.958;5.426;2024-02-15T01:43:43;14.43;;;9.52;;
55762;SDS011;42162;51.958;5.426;2024-02-15T01:46:15;18.77;;;11.00;;
55762;SDS011;42162;51.958;5.426;2024-02-15T01:48:42;12.38;;;9.13;;
55762;SDS011;42162;51.958;5.426;2024-02-15T01:51:11;15.10;;;9.73;;
55762;SDS011;42162;51.958;5.426;2024-02-15T01:53:41;14.82;;;8.30;;
55762;SDS011;42162;51.958;5.426;2024-02-15T01:56:10;25.17;;;10.35;;
55762;SDS011;42162;51.958;5.426;2024-02-15T01:58:44;16.52;;;9.52;;
55762;SDS011;42162;51.958;5.426;2024-02-15T02:01:13;16.37;;;9.47;;
55762;SDS011;42162;51.958;5.426;2024-02-15T02:03:45;20.58;;;9.90;;
55762;SDS011;42162;51.958;5.426;2024-02-15T02:06:12;16.55;;;9.48;;
55762;SDS011;42162;51.958;5.426;2024-02-15T02:08:40;12.65;;;7.50;;
55762;SDS011;42162;51.958;5.426;2024-02-15T02:11:08;12.25;;;7.90;;
55762;SDS011;42162;51.958;5.426;2024-02-15T02:13:35;14.00;;;7.82;;
55762;SDS011;42162;51.958;5.426;2024-02-15T02:16:02;14.35;;;8.25;;
55762;SDS011;42162;51.958;5.426;2024-02-15T02:18:30;17.13;;;8.25;;
55762;SDS011;42162;51.958;5.426;2024-02-15T02:20:57;13.48;;;8.40;;
55762;SDS011;42162;51.958;5.426;2024-02-15T02:23:25;18.88;;;8.13;;
55762;SDS011;42162;51.958;5.426;2024-02-15T02:25:56;13.60;;;7.57;;
55762;SDS011;42162;51.958;5.426;2024-02-15T02:28:26;10.98;;;7.53;;
55762;SDS011;42162;51.958;5.426;2024-02-15T02:30:55;11.75;;;6.72;;
55762;SDS011;42162;51.958;5.426;2024-02-15T02:33:23;14.32;;;7.90;;
55762;SDS011;42162;51.958;5.426;2024-02-15T02:35:56;19.13;;;7.57;;
55762;SDS011;42162;51.958;5.426;2024-02-15T02:38:24;12.23;;;7.28;;
55762;SDS011;42162;51.958;5.426;2024-02-15T02:40:53;13.20;;;7.13;;
55762;SDS011;42162;51.958;5.426;2024-02-15T02:43:20;16.70;;;7.32;;
55762;SDS011;42162;51.958;5.426;2024-02-15T02:45:47;18.80;;;7.80;;
55762;SDS011;42162;51.958;5.426;2024-02-15T02:48:14;13.82;;;6.45;;
55762;SDS011;42162;51.958;5.426;2024-02-15T02:50:41;13.93;;;6.63;;
55762;SDS011;42162;51.958;5.426;2024-02-15T02:53:09;9.65;;;6.28;;
55762;SDS011;42162;51.958;5.426;2024-02-15T02:55:37;16.65;;;7.22;;
55762;SDS011;42162;51.958;5.426;2024-02-15T02:58:05;17.40;;;6.43;;
55762;SDS011;42162;51.958;5.426;2024-02-15T03:00:32;13.77;;;5.82;;
55762;SDS011;42162;51.958;5.426;2024-02-15T03:03:00;12.43;;;6.05;;
55762;SDS011;42162;51.958;5.426;2024-02-15T03:05:27;12.10;;;6.07;;
55762;SDS011;42162;51.958;5.426;2024-02-15T03:07:54;14.02;;;5.53;;
55762;SDS011;42162;51.958;5.426;2024-02-15T03:10:21;12.45;;;6.05;;
55762;SDS011;42162;51.958;5.426;2024-02-15T03:12:50;12.15;;;5.25;;
55762;SDS011;42162;51.958;5.426;2024-02-15T03:15:19;12.50;;;5.30;;
55762;SDS011;42162;51.958;5.426;2024-02-15T03:17:47;14.38;;;5.55;;
55762;SDS011;42162;51.958;5.426;2024-02-15T03:20:16;9.88;;;5.13;;
55762;SDS011;42162;51.958;5.426;2024-02-15T03:22:52;10.60;;;5.25;;
55762;SDS011;42162;51.958;5.426;2024-02-15T03:25:21;13.15;;;5.85;;
55762;SDS011;42162;51.958;5.426;2024-02-15T03:27:52;10.80;;;4.82;;
55762;SDS011;42162;51.958;5.426;2024-02-15T03:30:21;18.98;;;5.57;;
55762;SDS011;42162;51.958;5.426;2024-02-15T03:32:50;14.60;;;5.75;;
55762;SDS011;42162;51.958;5.426;2024-02-15T03:35:19;16.92;;;5.75;;
55762;SDS011;42162;51.958;5.426;2024-02-15T03:37:50;13.50;;;5.70;;
55762;SDS011;42162;51.958;5.426;2024-02-15T03:40:19;9.35;;;4.97;;
55762;SDS011;42162;51.958;5.426;2024-02-15T03:42:47;11.90;;;4.57;;
55762;SDS011;42162;51.958;5.426;2024-02-15T03:45:17;7.78;;;4.45;;
55762;SDS011;42162;51.958;5.426;2024-02-15T03:47:44;15.00;;;5.07;;
55762;SDS011;42162;51.958;5.426;2024-02-15T03:50:13;17.63;;;4.82;;
55762;SDS011;42162;51.958;5.426;2024-02-15T03:52:42;12.25;;;4.43;;
55762;SDS011;42162;51.958;5.426;2024-02-15T03:55:10;12.32;;;4.13;;
55762;SDS011;42162;51.958;5.426;2024-02-15T03:57:38;12.07;;;3.92;;
55762;SDS011;42162;51.958;5.426;2024-02-15T04:00:14;13.02;;;4.60;;
55762;SDS011;42162;51.958;5.426;2024-02-15T04:02:42;9.85;;;4.72;;
55762;SDS011;42162;51.958;5.426;2024-02-15T04:05:10;13.43;;;5.15;;
55762;SDS011;42162;51.958;5.426;2024-02-15T04:07:42;17.88;;;4.25;;
55762;SDS011;42162;51.958;5.426;2024-02-15T04:10:10;11.00;;;4.50;;
55762;SDS011;42162;51.958;5.426;2024-02-15T04:12:48;12.55;;;3.85;;
55762;SDS011;42162;51.958;5.426;2024-02-15T04:15:16;14.48;;;5.60;;
55762;SDS011;42162;51.958;5.426;2024-02-15T04:17:44;12.55;;;4.30;;
55762;SDS011;42162;51.958;5.426;2024-02-15T04:20:15;10.27;;;4.25;;
55762;SDS011;42162;51.958;5.426;2024-02-15T04:22:47;9.95;;;3.83;;
55762;SDS011;42162;51.958;5.426;2024-02-15T04:25:17;12.98;;;3.80;;
55762;SDS011;42162;51.958;5.426;2024-02-15T04:27:49;10.43;;;3.63;;
55762;SDS011;42162;51.958;5.426;2024-02-15T04:30:17;15.43;;;3.58;;
55762;SDS011;42162;51.958;5.426;2024-02-15T04:32:45;9.65;;;4.03;;
55762;SDS011;42162;51.958;5.426;2024-02-15T04:35:14;9.07;;;4.07;;
55762;SDS011;42162;51.958;5.426;2024-02-15T04:37:41;8.07;;;3.50;;
55762;SDS011;42162;51.958;5.426;2024-02-15T04:40:09;13.68;;;3.70;;
55762;SDS011;42162;51.958;5.426;2024-02-15T04:42:40;8.00;;;3.75;;
55762;SDS011;42162;51.958;5.426;2024-02-15T04:45:11;11.25;;;3.90;;
55762;SDS011;42162;51.958;5.426;2024-02-15T04:47:55;10.38;;;4.45;;
55762;SDS011;42162;51.958;5.426;2024-02-15T04:50:24;13.23;;;4.18;;
55762;SDS011;42162;51.958;5.426;2024-02-15T04:52:52;10.32;;;3.70;;
55762;SDS011;42162;51.958;5.426;2024-02-15T04:55:22;14.07;;;3.60;;
55762;SDS011;42162;51.958;5.426;2024-02-15T04:57:50;9.10;;;4.18;;
55762;SDS011;42162;51.958;5.426;2024-02-15T05:00:23;13.20;;;4.22;;
55762;SDS011;42162;51.958;5.426;2024-02-15T05:02:57;9.75;;;4.07;;
55762;SDS011;42162;51.958;5.426;2024-02-15T05:05:25;16.10;;;4.13;;
55762;SDS011;42162;51.958;5.426;2024-02-15T05:07:53;9.20;;;3.97;;
55762;SDS011;42162;51.958;5.426;2024-02-15T05:10:24;13.95;;;3.80;;
55762;SDS011;42162;51.958;5.426;2024-02-15T05:12:52;10.60;;;3.72;;
55762;SDS011;42162;51.958;5.426;2024-02-15T05:15:20;9.73;;;3.65;;
55762;SDS011;42162;51.958;5.426;2024-02-15T05:17:52;13.27;;;4.45;;
55762;SDS011;42162;51.958;5.426;2024-02-15T05:20:25;9.93;;;4.10;;
55762;SDS011;42162;51.958;5.426;2024-02-15T05:22:53;12.38;;;3.75;;
55762;SDS011;42162;51.958;5.426;2024-02-15T05:25:23;11.60;;;4.93;;
55762;SDS011;42162;51.958;5.426;2024-02-15T05:27:54;7.55;;;3.90;;
55762;SDS011;42162;51.958;5.426;2024-02-15T05:30:23;13.55;;;4.18;;
55762;SDS011;42162;51.958;5.426;2024-02-15T05:32:53;10.10;;;4.05;;
55762;SDS011;42162;51.958;5.426;2024-02-15T05:35:22;17.88;;;4.10;;
55762;SDS011;42162;51.958;5.426;2024-02-15T05:37:49;11.45;;;4.05;;
55762;SDS011;42162;51.958;5.426;2024-02-15T05:40:20;13.45;;;4.50;;
55762;SDS011;42162;51.958;5.426;2024-02-15T05:42:47;14.38;;;4.03;;
55762;SDS011;42162;51.958;5.426;2024-02-15T05:47:53;14.18;;;4.40;;
55762;SDS011;42162;51.958;5.426;2024-02-15T05:50:22;13.82;;;4.38;;
55762;SDS011;42162;51.958;5.426;2024-02-15T05:52:51;10.88;;;4.20;;
55762;SDS011;42162;51.958;5.426;2024-02-15T05:55:21;11.93;;;4.70;;
55762;SDS011;42162;51.958;5.426;2024-02-15T05:57:49;12.82;;;4.65;;
55762;SDS011;42162;51.958;5.426;2024-02-15T06:00:17;14.65;;;4.55;;
55762;SDS011;42162;51.958;5.426;2024-02-15T06:05:17;9.88;;;4.10;;
55762;SDS011;42162;51.958;5.426;2024-02-15T06:07:46;21.90;;;5.30;;
55762;SDS011;42162;51.958;5.426;2024-02-15T06:10:14;12.05;;;5.22;;
55762;SDS011;42162;51.958;5.426;2024-02-15T06:12:44;16.92;;;5.28;;
55762;SDS011;42162;51.958;5.426;2024-02-15T06:15:14;10.88;;;4.32;;
55762;SDS011;42162;51.958;5.426;2024-02-15T06:17:43;9.50;;;4.22;;
55762;SDS011;42162;51.958;5.426;2024-02-15T06:20:12;11.95;;;4.57;;
55762;SDS011;42162;51.958;5.426;2024-02-15T06:22:45;11.52;;;4.20;;
55762;SDS011;42162;51.958;5.426;2024-02-15T06:25:13;8.20;;;4.68;;
55762;SDS011;42162;51.958;5.426;2024-02-15T06:27:42;9.52;;;4.15;;
55762;SDS011;42162;51.958;5.426;2024-02-15T06:30:09;8.27;;;4.47;;
55762;SDS011;42162;51.958;5.426;2024-02-15T06:32:59;8.00;;;4.35;;
55762;SDS011;42162;51.958;5.426;2024-02-15T06:35:45;4.80;;;3.30;;
55762;SDS011;42162;51.958;5.426;2024-02-15T06:38:31;8.15;;;4.57;;
55762;SDS011;42162;51.958;5.426;2024-02-15T06:41:17;6.53;;;3.85;;
55762;SDS011;42162;51.958;5.426;2024-02-15T06:43:49;8.35;;;4.35;;
55762;SDS011;42162;51.958;5.426;2024-02-15T06:46:16;7.40;;;3.92;;
55762;SDS011;42162;51.958;5.426;2024-02-15T06:48:46;10.50;;;4.90;;
55762;SDS011;42162;51.958;5.426;2024-02-15T06:51:13;8.68;;;4.15;;
55762;SDS011;42162;51.958;5.426;2024-02-15T06:53:42;10.60;;;4.97;;
55762;SDS011;42162;51.958;5.426;2024-02-15T06:56:10;9.75;;;3.95;;
55762;SDS011;42162;51.958;5.426;2024-02-15T06:58:39;9.88;;;3.92;;
55762;SDS011;42162;51.958;5.426;2024-02-15T07:01:09;11.40;;;4.45;;
55762;SDS011;42162;51.958;5.426;2024-02-15T07:03:36;10.68;;;4.75;;
55762;SDS011;42162;51.958;5.426;2024-02-15T07:06:04;7.18;;;3.08;;
55762;SDS011;42162;51.958;5.426;2024-02-15T07:08:31;7.28;;;3.30;;
55762;SDS011;42162;51.958;5.426;2024-02-15T07:10:59;8.57;;;3.80;;
55762;SDS011;42162;51.958;5.426;2024-02-15T07:13:26;11.38;;;4.20;;
55762;SDS011;42162;51.958;5.426;2024-02-15T07:15:53;10.73;;;3.88;;
55762;SDS011;42162;51.958;5.426;2024-02-15T07:18:21;15.02;;;3.63;;
55762;SDS011;42162;51.958;5.426;2024-02-15T07:20:55;10.35;;;3.53;;
55762;SDS011;42162;51.958;5.426;2024-02-15T07:23:26;7.72;;;3.40;;
55762;SDS011;42162;51.958;5.426;2024-02-15T07:25:54;7.15;;;3.40;;
55762;SDS011;42162;51.958;5.426;2024-02-15T07:28:21;9.73;;;2.80;;
55762;SDS011;42162;51.958;5.426;2024-02-15T07:30:51;10.07;;;3.50;;
55762;SDS011;42162;51.958;5.426;2024-02-15T07:33:21;9.80;;;3.30;;
55762;SDS011;42162;51.958;5.426;2024-02-15T07:35:51;8.60;;;3.38;;
55762;SDS011;42162;51.958;5.426;2024-02-15T07:38:18;4.82;;;2.85;;
55762;SDS011;42162;51.958;5.426;2024-02-15T07:40:46;10.88;;;3.30;;
55762;SDS011;42162;51.958;5.426;2024-02-15T07:43:15;5.65;;;3.28;;
55762;SDS011;42162;51.958;5.426;2024-02-15T07:45:42;5.45;;;2.78;;
55762;SDS011;42162;51.958;5.426;2024-02-15T07:48:09;4.82;;;2.28;;
55762;SDS011;42162;51.958;5.426;2024-02-15T07:50:37;4.55;;;2.30;;
55762;SDS011;42162;51.958;5.426;2024-02-15T07:53:04;3.65;;;1.90;;
55762;SDS011;42162;51.958;5.426;2024-02-15T07:55:35;6.38;;;3.10;;
55762;SDS011;42162;51.958;5.426;2024-02-15T07:58:04;3.47;;;2.35;;
55762;SDS011;42162;51.958;5.426;2024-02-15T08:00:31;4.00;;;2.80;;
55762;SDS011;42162;51.958;5.426;2024-02-15T08:02:59;6.28;;;2.95;;
55762;SDS011;42162;51.958;5.426;2024-02-15T08:05:26;4.95;;;2.85;;
55762;SDS011;42162;51.958;5.426;2024-02-15T08:07:53;7.07;;;3.50;;
55762;SDS011;42162;51.958;5.426;2024-02-15T08:10:24;6.68;;;2.95;;
55762;SDS011;42162;51.958;5.426;2024-02-15T08:12:54;5.20;;;2.55;;
55762;SDS011;42162;51.958;5.426;2024-02-15T08:15:24;6.55;;;2.80;;
55762;SDS011;42162;51.958;5.426;2024-02-15T08:17:55;6.50;;;2.47;;
55762;SDS011;42162;51.958;5.426;2024-02-15T08:20:23;5.85;;;2.78;;
55762;SDS011;42162;51.958;5.426;2024-02-15T08:22:50;6.68;;;2.92;;
55762;SDS011;42162;51.958;5.426;2024-02-15T08:25:17;5.57;;;2.17;;
55762;SDS011;42162;51.958;5.426;2024-02-15T08:27:48;7.00;;;3.08;;
55762;SDS011;42162;51.958;5.426;2024-02-15T08:30:18;5.68;;;2.72;;
55762;SDS011;42162;51.958;5.426;2024-02-15T08:32:50;6.03;;;2.55;;
55762;SDS011;42162;51.958;5.426;2024-02-15T08:35:20;4.88;;;2.30;;
55762;SDS011;42162;51.958;5.426;2024-02-15T08:37:48;4.70;;;2.80;;
55762;SDS011;42162;51.958;5.426;2024-02-15T08:40:17;6.75;;;2.67;;
55762;SDS011;42162;51.958;5.426;2024-02-15T08:42:46;5.95;;;3.10;;
55762;SDS011;42162;51.958;5.426;2024-02-15T08:45:14;4.32;;;2.35;;
55762;SDS011;42162;51.958;5.426;2024-02-15T08:47:42;4.15;;;2.05;;
55762;SDS011;42162;51.958;5.426;2024-02-15T08:50:10;4.22;;;2.15;;
55762;SDS011;42162;51.958;5.426;2024-02-15T08:52:39;4.85;;;2.33;;
55762;SDS011;42162;51.958;5.426;2024-02-15T08:55:07;10.68;;;2.65;;
55762;SDS011;42162;51.958;5.426;2024-02-15T08:57:41;9.80;;;2.58;;
55762;SDS011;42162;51.958;5.426;2024-02-15T09:00:11;8.40;;;2.13;;
55762;SDS011;42162;51.958;5.426;2024-02-15T09:02:43;8.73;;;2.40;;
55762;SDS011;42162;51.958;5.426;2024-02-15T09:05:11;6.55;;;2.50;;
55762;SDS011;42162;51.958;5.426;2024-02-15T09:07:42;6.60;;;2.40;;
55762;SDS011;42162;51.958;5.426;2024-02-15T09:10:10;8.40;;;3.40;;
55762;SDS011;42162;51.958;5.426;2024-02-15T09:12:41;11.18;;;2.83;;
55762;SDS011;42162;51.958;5.426;2024-02-15T09:15:10;8.30;;;3.15;;
55762;SDS011;42162;51.958;5.426;2024-02-15T09:17:37;9.32;;;3.95;;
55762;SDS011;42162;51.958;5.426;2024-02-15T09:22:42;8.13;;;3.30;;
55762;SDS011;42162;51.958;5.426;2024-02-15T09:25:17;12.70;;;3.13;;
55762;SDS011;42162;51.958;5.426;2024-02-15T09:27:45;9.45;;;3.55;;
55762;SDS011;42162;51.958;5.426;2024-02-15T09:30:13;9.07;;;3.08;;
55762;SDS011;42162;51.958;5.426;2024-02-15T09:32:41;6.32;;;3.15;;
55762;SDS011;42162;51.958;5.426;2024-02-15T09:35:09;6.90;;;3.05;;
55762;SDS011;42162;51.958;5.426;2024-02-15T09:37:42;10.77;;;3.40;;
55762;SDS011;42162;51.958;5.426;2024-02-15T09:40:14;6.65;;;2.80;;
55762;SDS011;42162;51.958;5.426;2024-02-15T09:45:12;11.52;;;3.25;;
55762;SDS011;42162;51.958;5.426;2024-02-15T09:47:42;6.68;;;2.80;;
55762;SDS011;42162;51.958;5.426;2024-02-15T09:50:10;5.30;;;3.10;;
55762;SDS011;42162;51.958;5.426;2024-02-15T09:52:43;7.90;;;3.35;;
55762;SDS011;42162;51.958;5.426;2024-02-15T09:55:19;5.07;;;2.92;;
55762;SDS011;42162;51.958;5.426;2024-02-15T09:57:50;8.57;;;2.73;;
55762;SDS011;42162;51.958;5.426;2024-02-15T10:00:18;9.02;;;2.90;;
55762;SDS011;42162;51.958;5.426;2024-02-15T10:02:50;7.57;;;2.78;;
55762;SDS011;42162;51.958;5.426;2024-02-15T10:05:22;6.78;;;2.95;;
55762;SDS011;42162;51.958;5.426;2024-02-15T10:07:50;7.45;;;2.70;;
55762;SDS011;42162;51.958;5.426;2024-02-15T10:10:20;6.75;;;2.88;;
55762;SDS011;42162;51.958;5.426;2024-02-15T10:12:49;6.60;;;2.90;;
55762;SDS011;42162;51.958;5.426;2024-02-15T10:15:34;7.40;;;3.10;;
55762;SDS011;42162;51.958;5.426;2024-02-15T10:18:06;7.95;;;2.85;;
55762;SDS011;42162;51.958;5.426;2024-02-15T10:20:40;4.28;;;2.00;;
55762;SDS011;42162;51.958;5.426;2024-02-15T10:23:12;6.78;;;2.72;;
55762;SDS011;42162;51.958;5.426;2024-02-15T10:25:45;8.18;;;2.50;;
55762;SDS011;42162;51.958;5.426;2024-02-15T10:28:14;8.30;;;2.80;;
55762;SDS011;42162;51.958;5.426;2024-02-15T10:30:47;5.85;;;2.17;;
55762;SDS011;42162;51.958;5.426;2024-02-15T10:33:19;4.97;;;2.42;;
55762;SDS011;42162;51.958;5.426;2024-02-15T10:35:52;5.15;;;2.47;;
55762;SDS011;42162;51.958;5.426;2024-02-15T10:38:32;9.82;;;2.75;;
55762;SDS011;42162;51.958;5.426;2024-02-15T10:41:03;6.63;;;3.00;;
55762;SDS011;42162;51.958;5.426;2024-02-15T10:43:35;9.52;;;3.22;;
55762;SDS011;42162;51.958;5.426;2024-02-15T10:46:07;6.38;;;2.80;;
55762;SDS011;42162;51.958;5.426;2024-02-15T10:48:37;6.13;;;3.25;;
55762;SDS011;42162;51.958;5.426;2024-02-15T10:51:08;6.53;;;2.75;;
55762;SDS011;42162;51.958;5.426;2024-02-15T10:53:39;8.60;;;2.60;;
55762;SDS011;42162;51.958;5.426;2024-02-15T10:56:14;8.90;;;2.75;;
55762;SDS011;42162;51.958;5.426;2024-02-15T11:01:54;5.63;;;2.15;;
55762;SDS011;42162;51.958;5.426;2024-02-15T11:04:27;7.40;;;3.13;;
55762;SDS011;42162;51.958;5.426;2024-02-15T11:06:59;7.60;;;2.75;;
55762;SDS011;42162;51.958;5.426;2024-02-15T11:09:30;5.82;;;2.45;;
55762;SDS011;42162;51.958;5.426;2024-02-15T11:11:57;6.03;;;3.05;;
55762;SDS011;42162;51.958;5.426;2024-02-15T11:14:26;11.40;;;3.05;;
55762;SDS011;42162;51.958;5.426;2024-02-15T11:16:59;5.93;;;2.72;;
55762;SDS011;42162;51.958;5.426;2024-02-15T11:22:16;11.02;;;2.60;;
55762;SDS011;42162;51.958;5.426;2024-02-15T11:24:47;5.30;;;2.42;;
55762;SDS011;42162;51.958;5.426;2024-02-15T11:27:28;6.97;;;2.75;;
55762;SDS011;42162;51.958;5.426;2024-02-15T11:29:57;9.75;;;3.00;;
55762;SDS011;42162;51.958;5.426;2024-02-15T11:32:47;6.90;;;2.40;;
55762;SDS011;42162;51.958;5.426;2024-02-15T11:35:22;3.88;;;1.88;;
55762;SDS011;42162;51.958;5.426;2024-02-15T11:37:52;4.40;;;2.35;;
55762;SDS011;42162;51.958;5.426;2024-02-15T11:40:22;6.35;;;2.47;;
55762;SDS011;42162;51.958;5.426;2024-02-15T11:46:19;4.22;;;2.15;;
55762;SDS011;42162;51.958;5.426;2024-02-15T11:48:47;6.68;;;2.53;;
55762;SDS011;42162;51.958;5.426;2024-02-15T11:51:33;7.80;;;3.08;;
55762;SDS011;42162;51.958;5.426;2024-02-15T11:54:10;7.63;;;3.15;;
55762;SDS011;42162;51.958;5.426;2024-02-15T11:59:16;6.97;;;2.53;;
55762;SDS011;42162;51.958;5.426;2024-02-15T12:01:56;6.60;;;2.88;;
55762;SDS011;42162;51.958;5.426;2024-02-15T12:04:43;6.70;;;2.88;;
55762;SDS011;42162;51.958;5.426;2024-02-15T12:07:32;5.20;;;2.55;;
55762;SDS011;42162;51.958;5.426;2024-02-15T12:10:19;5.90;;;2.42;;
55762;SDS011;42162;51.958;5.426;2024-02-15T12:13:06;6.05;;;2.67;;
55762;SDS011;42162;51.958;5.426;2024-02-15T12:15:56;6.68;;;2.25;;
55762;SDS011;42162;51.958;5.426;2024-02-15T12:18:42;7.97;;;2.55;;
55762;SDS011;42162;51.958;5.426;2024-02-15T12:21:13;6.18;;;2.40;;
55762;SDS011;42162;51.958;5.426;2024-02-15T12:23:45;9.48;;;2.40;;
55762;SDS011;42162;51.958;5.426;2024-02-15T12:26:19;5.53;;;2.22;;
55762;SDS011;42162;51.958;5.426;2024-02-15T12:31:18;5.65;;;2.90;;
55762;SDS011;42162;51.958;5.426;2024-02-15T12:33:45;5.13;;;2.58;;
55762;SDS011;42162;51.958;5.426;2024-02-15T12:36:14;7.13;;;1.80;;
55762;SDS011;42162;51.958;5.426;2024-02-15T12:38:44;6.80;;;2.67;;
55762;SDS011;42162;51.958;5.426;2024-02-15T12:41:20;10.10;;;2.72;;
55762;SDS011;42162;51.958;5.426;2024-02-15T12:43:54;5.18;;;2.20;;
55762;SDS011;42162;51.958;5.426;2024-02-15T12:46:21;6.38;;;2.20;;
55762;SDS011;42162;51.958;5.426;2024-02-15T12:48:49;10.18;;;2.25;;
55762;SDS011;42162;51.958;5.426;2024-02-15T12:51:16;6.57;;;2.40;;
55762;SDS011;42162;51.958;5.426;2024-02-15T12:53:44;7.75;;;2.25;;
55762;SDS011;42162;51.958;5.426;2024-02-15T12:56:19;7.93;;;2.28;;
55762;SDS011;42162;51.958;5.426;2024-02-15T12:58:47;8.35;;;2.00;;
55762;SDS011;42162;51.958;5.426;2024-02-15T13:01:14;9.75;;;2.58;;
55762;SDS011;42162;51.958;5.426;2024-02-15T13:03:43;8.30;;;2.65;;
55762;SDS011;42162;51.958;5.426;2024-02-15T13:06:11;8.40;;;2.25;;
55762;SDS011;42162;51.958;5.426;2024-02-15T13:08:39;7.72;;;2.55;;
55762;SDS011;42162;51.958;5.426;2024-02-15T13:11:06;8.45;;;3.28;;
55762;SDS011;42162;51.958;5.426;2024-02-15T13:13:36;6.50;;;3.03;;
55762;SDS011;42162;51.958;5.426;2024-02-15T13:16:04;8.00;;;2.75;;
55762;SDS011;42162;51.958;5.426;2024-02-15T13:18:33;9.05;;;3.22;;
55762;SDS011;42162;51.958;5.426;2024-02-15T13:21:00;11.05;;;3.40;;
55762;SDS011;42162;51.958;5.426;2024-02-15T13:23:29;6.85;;;2.42;;
55762;SDS011;42162;51.958;5.426;2024-02-15T13:25:57;10.07;;;3.20;;
55762;SDS011;42162;51.958;5.426;2024-02-15T13:28:29;6.13;;;2.78;;
55762;SDS011;42162;51.958;5.426;2024-02-15T13:30:57;7.03;;;2.38;;
55762;SDS011;42162;51.958;5.426;2024-02-15T13:33:24;4.90;;;2.80;;
55762;SDS011;42162;51.958;5.426;2024-02-15T13:35:54;7.50;;;3.20;;
55762;SDS011;42162;51.958;5.426;2024-02-15T13:38:22;6.47;;;2.70;;
55762;SDS011;42162;51.958;5.426;2024-02-15T13:40:51;6.80;;;2.92;;
55762;SDS011;42162;51.958;5.426;2024-02-15T13:43:26;7.18;;;2.42;;
55762;SDS011;42162;51.958;5.426;2024-02-15T13:48:22;9.80;;;3.10;;
55762;SDS011;42162;51.958;5.426;2024-02-15T13:50:51;7.70;;;2.83;;
55762;SDS011;42162;51.958;5.426;2024-02-15T13:53:21;4.80;;;2.30;;
55762;SDS011;42162;51.958;5.426;2024-02-15T13:55:53;5.72;;;2.88;;
55762;SDS011;42162;51.958;5.426;2024-02-15T13:58:21;5.15;;;2.22;;
55762;SDS011;42162;51.958;5.426;2024-02-15T14:00:50;4.50;;;2.20;;
55762;SDS011;42162;51.958;5.426;2024-02-15T14:03:19;9.57;;;2.80;;
55762;SDS011;42162;51.958;5.426;2024-02-15T14:05:49;6.13;;;2.42;;
55762;SDS011;42162;51.958;5.426;2024-02-15T14:08:16;5.38;;;2.35;;
55762;SDS011;42162;51.958;5.426;2024-02-15T14:10:47;5.50;;;2.95;;
55762;SDS011;42162;51.958;5.426;2024-02-15T14:13:16;4.70;;;2.30;;
55762;SDS011;42162;51.958;5.426;2024-02-15T14:15:43;5.90;;;2.13;;
55762;SDS011;42162;51.958;5.426;2024-02-15T14:18:12;9.35;;;2.72;;
55762;SDS011;42162;51.958;5.426;2024-02-15T14:20:42;6.63;;;2.28;;
55762;SDS011;42162;51.958;5.426;2024-02-15T14:23:10;6.43;;;2.45;;
55762;SDS011;42162;51.958;5.426;2024-02-15T14:25:42;4.38;;;2.00;;
55762;SDS011;42162;51.958;5.426;2024-02-15T14:28:10;4.65;;;1.85;;
55762;SDS011;42162;51.958;5.426;2024-02-15T14:30:42;8.00;;;2.70;;
55762;SDS011;42162;51.958;5.426;2024-02-15T14:33:27;7.07;;;2.15;;
55762;SDS011;42162;51.958;5.426;2024-02-15T14:35:58;6.97;;;3.13;;
55762;SDS011;42162;51.958;5.426;2024-02-15T14:38:27;5.28;;;2.05;;
55762;SDS011;42162;51.958;5.426;2024-02-15T14:40:54;8.82;;;2.53;;
55762;SDS011;42162;51.958;5.426;2024-02-15T14:43:24;4.95;;;2.05;;
55762;SDS011;42162;51.958;5.426;2024-02-15T14:45:54;5.97;;;2.50;;
55762;SDS011;42162;51.958;5.426;2024-02-15T14:48:24;4.78;;;2.20;;
55762;SDS011;42162;51.958;5.426;2024-02-15T14:50:52;6.72;;;2.00;;
55762;SDS011;42162;51.958;5.426;2024-02-15T14:53:20;4.97;;;2.30;;
55762;SDS011;42162;51.958;5.426;2024-02-15T14:55:48;6.85;;;2.42;;
55762;SDS011;42162;51.958;5.426;2024-02-15T14:58:16;5.10;;;2.10;;
55762;SDS011;42162;51.958;5.426;2024-02-15T15:00:44;8.30;;;2.80;;
55762;SDS011;42162;51.958;5.426;2024-02-15T15:03:14;5.50;;;1.75;;
55762;SDS011;42162;51.958;5.426;2024-02-15T15:05:43;8.25;;;2.20;;
55762;SDS011;42162;51.958;5.426;2024-02-15T15:08:30;5.03;;;1.90;;
55762;SDS011;42162;51.958;5.426;2024-02-15T15:11:16;4.10;;;2.55;;
55762;SDS011;42162;51.958;5.426;2024-02-15T15:14:02;4.57;;;2.30;;
55762;SDS011;42162;51.958;5.426;2024-02-15T15:16:33;3.72;;;1.60;;
55762;SDS011;42162;51.958;5.426;2024-02-15T15:19:01;5.28;;;1.70;;
55762;SDS011;42162;51.958;5.426;2024-02-15T15:21:29;3.72;;;1.60;;
55762;SDS011;42162;51.958;5.426;2024-02-15T15:23:56;9.25;;;2.15;;